createdAt,value
2018-12-04T00:00:06.421Z,3.90
2018-12-04T00:03:04.461Z,3.60
2018-12-04T00:06:02.626Z,6.00
2018-12-04T00:09:00.381Z,5.00
2018-12-04T00:11:58.273Z,5.83
2018-12-04T00:14:56.076Z,3.97
2018-12-04T00:17:53.931Z,3.13
2018-12-04T00:20:53.076Z,5.10
2018-12-04T00:23:51.026Z,4.03
2018-12-04T00:26:48.676Z,5.43
2018-12-04T00:29:46.682Z,5.07
2018-12-04T00:32:44.557Z,5.17
2018-12-04T00:35:42.250Z,5.60
2018-12-04T00:38:40.099Z,4.40
2018-12-04T00:41:37.847Z,6.57
2018-12-04T00:44:35.963Z,9.23
2018-12-04T00:47:33.803Z,6.67
2018-12-04T00:50:32.570Z,6.23
2018-12-04T00:53:31.328Z,6.87
2018-12-04T00:56:30.098Z,8.37
2018-12-04T00:59:27.959Z,9.53
2018-12-04T01:02:26.519Z,7.63
2018-12-04T01:05:24.494Z,5.60
2018-12-04T01:08:22.293Z,6.77
2018-12-04T01:11:20.096Z,5.63
2018-12-04T01:14:17.873Z,6.10
2018-12-04T01:17:15.692Z,5.00
2018-12-04T01:20:13.452Z,5.37
2018-12-04T01:23:11.291Z,9.33
2018-12-04T01:26:10.065Z,7.30
2018-12-04T01:29:07.843Z,6.97
2018-12-04T01:32:05.652Z,6.33
2018-12-04T01:35:03.555Z,4.83
2018-12-04T01:38:01.443Z,8.87
2018-12-04T01:41:00.293Z,6.13
2018-12-04T01:43:58.884Z,7.00
2018-12-04T01:46:56.822Z,6.27
2018-12-04T01:49:54.452Z,5.77
2018-12-04T01:52:52.317Z,5.47
2018-12-04T01:55:51.069Z,3.73
2018-12-04T01:58:48.956Z,5.27
2018-12-04T02:01:46.710Z,4.60
2018-12-04T02:04:45.449Z,3.37
2018-12-04T02:07:43.206Z,6.43
2018-12-04T02:10:41.098Z,5.20
2018-12-04T02:13:39.017Z,3.03
2018-12-04T02:16:36.803Z,5.37
2018-12-04T02:19:34.670Z,5.17
2018-12-04T02:22:32.727Z,5.43
2018-12-04T02:25:30.488Z,4.57
2018-12-04T02:28:31.200Z,6.13
2018-12-04T02:31:29.461Z,5.77
2018-12-04T02:34:28.330Z,4.33
2018-12-04T02:37:26.275Z,4.23
2018-12-04T02:40:24.220Z,4.97
2018-12-04T02:43:22.111Z,3.90
2018-12-04T02:46:19.913Z,4.77
2018-12-04T02:49:18.840Z,4.53
2018-12-04T02:52:16.502Z,5.17
2018-12-04T02:55:15.273Z,7.30
2018-12-04T02:58:13.829Z,3.67
2018-12-04T03:01:11.614Z,4.60
2018-12-04T03:04:09.455Z,3.97
2018-12-04T03:07:07.048Z,4.23
2018-12-04T03:10:05.766Z,5.13
2018-12-04T03:13:03.598Z,5.27
2018-12-04T03:16:02.287Z,3.47
2018-12-04T03:19:00.176Z,4.57
2018-12-04T03:21:58.008Z,5.03
2018-12-04T03:24:56.085Z,3.63
2018-12-04T03:27:53.921Z,2.23
2018-12-04T03:30:51.716Z,2.67
2018-12-04T03:33:57.413Z,3.77
2018-12-04T03:36:55.273Z,3.40
2018-12-04T03:39:53.116Z,4.43
2018-12-04T03:42:51.698Z,3.33
2018-12-04T03:45:49.470Z,2.80
2018-12-04T03:48:47.215Z,6.17
2018-12-04T03:51:44.960Z,4.50
2018-12-04T03:54:42.903Z,3.83
2018-12-04T03:57:40.769Z,4.23
2018-12-04T04:00:39.432Z,4.43
2018-12-04T04:03:37.197Z,5.80
2018-12-04T04:06:34.864Z,3.53
2018-12-04T04:09:32.621Z,4.53
2018-12-04T04:12:31.496Z,5.67
2018-12-04T04:15:29.379Z,5.03
2018-12-04T04:18:27.388Z,5.37
2018-12-04T04:24:31.199Z,6.43
2018-12-04T04:27:29.181Z,5.53
2018-12-04T04:30:28.038Z,3.10
2018-12-04T04:33:25.958Z,4.33
2018-12-04T04:36:24.796Z,4.83
2018-12-04T04:39:22.711Z,5.63
2018-12-04T04:42:20.600Z,3.80
2018-12-04T04:45:18.468Z,6.27
2018-12-04T04:48:16.363Z,4.07
2018-12-04T04:51:14.376Z,4.20
2018-12-04T04:54:12.427Z,4.00
2018-12-04T04:57:10.280Z,3.93
2018-12-04T05:00:08.333Z,4.13
2018-12-04T05:03:06.186Z,3.93
2018-12-04T05:06:04.200Z,6.30
2018-12-04T05:09:03.083Z,3.33
2018-12-04T05:12:01.736Z,4.20
2018-12-04T05:14:59.719Z,6.37
2018-12-04T05:17:58.567Z,5.30
2018-12-04T05:20:57.521Z,5.43
2018-12-04T05:23:55.491Z,6.37
2018-12-04T05:26:53.467Z,4.43
2018-12-04T05:29:51.273Z,3.27
2018-12-04T05:32:49.143Z,4.53
2018-12-04T05:35:47.305Z,5.73
2018-12-04T05:38:45.173Z,8.10
2018-12-04T05:41:43.019Z,6.57
2018-12-04T05:44:41.183Z,5.83
2018-12-04T05:47:39.953Z,5.73
2018-12-04T05:50:37.715Z,5.23
2018-12-04T05:53:45.285Z,5.27
2018-12-04T05:56:43.050Z,5.83
2018-12-04T05:59:40.983Z,3.40
2018-12-04T06:02:39.720Z,2.20
2018-12-04T06:05:37.427Z,1.87
2018-12-04T06:08:35.496Z,1.97
2018-12-04T06:11:33.346Z,1.57
2018-12-04T06:14:31.313Z,2.10
2018-12-04T06:17:29.163Z,1.00
2018-12-04T06:20:27.012Z,1.03
2018-12-04T06:23:26.099Z,1.20
2018-12-04T06:26:24.057Z,1.43
2018-12-04T06:29:21.920Z,2.80
2018-12-04T06:32:20.881Z,1.40
2018-12-04T06:35:18.636Z,1.27
2018-12-04T06:38:16.389Z,1.30
2018-12-04T06:41:14.141Z,2.30
2018-12-04T06:44:12.008Z,2.20
2018-12-04T06:47:09.823Z,2.77
2018-12-04T06:50:07.608Z,2.43
2018-12-04T06:53:05.463Z,4.03
2018-12-04T06:56:03.268Z,2.47
2018-12-04T06:59:01.176Z,4.10
2018-12-04T07:01:58.942Z,3.10
2018-12-04T07:04:56.682Z,5.73
2018-12-04T07:07:54.684Z,4.73
2018-12-04T07:10:52.525Z,5.77
2018-12-04T07:13:50.396Z,5.07
2018-12-04T07:16:49.144Z,4.10
2018-12-04T07:19:47.088Z,6.97
2018-12-04T07:22:45.154Z,6.37
2018-12-04T07:25:42.909Z,7.90
2018-12-04T07:28:40.885Z,6.63
2018-12-04T07:31:38.623Z,6.70
2018-12-04T07:34:37.284Z,7.40
2018-12-04T07:37:36.069Z,7.10
2018-12-04T07:40:33.700Z,7.80
2018-12-04T07:43:31.419Z,6.20
2018-12-04T07:46:29.150Z,4.57
2018-12-04T07:49:26.791Z,5.70
2018-12-04T07:52:24.565Z,5.80
2018-12-04T07:55:23.305Z,5.67
2018-12-04T07:58:21.071Z,5.43
2018-12-04T08:01:19.071Z,4.20
2018-12-04T08:04:16.910Z,5.37
2018-12-04T08:07:15.616Z,5.07
2018-12-04T08:10:13.668Z,5.20
2018-12-04T08:13:11.471Z,4.93
2018-12-04T08:16:09.210Z,6.27
2018-12-04T08:19:07.092Z,5.47
2018-12-04T08:22:05.049Z,6.87
2018-12-04T08:25:03.852Z,7.07
2018-12-04T08:28:01.761Z,4.53
2018-12-04T08:30:59.553Z,6.33
2018-12-04T08:33:57.264Z,6.87
2018-12-04T08:36:55.137Z,7.97
2018-12-04T08:39:53.198Z,6.20
2018-12-04T08:42:52.053Z,9.87
2018-12-04T08:45:50.025Z,13.73
2018-12-04T08:48:47.994Z,11.90
2018-12-04T08:51:45.708Z,10.73
2018-12-04T08:54:43.412Z,4.90
2018-12-04T08:57:41.278Z,6.63
2018-12-04T09:00:39.312Z,7.13
2018-12-04T09:03:37.148Z,5.90
2018-12-04T09:12:08.960Z,6.43
2018-12-04T09:15:06.788Z,5.40
2018-12-04T09:18:05.470Z,5.53
2018-12-04T09:21:03.228Z,8.87
2018-12-04T09:24:02.130Z,9.10
2018-12-04T09:27:05.314Z,7.20
2018-12-04T09:29:59.583Z,7.47
2018-12-04T09:32:58.336Z,6.93
2018-12-04T09:35:56.903Z,7.27
2018-12-04T09:38:54.802Z,8.97
2018-12-04T09:41:52.706Z,11.80
2018-12-04T09:44:50.470Z,8.63
2018-12-04T09:47:48.177Z,10.03
2018-12-04T09:50:46.890Z,9.80
2018-12-04T09:53:44.781Z,10.97
2018-12-04T09:56:42.702Z,11.90
2018-12-04T09:59:40.514Z,9.03
2018-12-04T10:02:39.232Z,7.70
2018-12-04T10:05:38.045Z,8.53
2018-12-04T10:08:36.933Z,7.27
2018-12-04T10:11:34.737Z,8.87
2018-12-04T10:14:32.731Z,6.83
2018-12-04T10:17:30.677Z,8.40
2018-12-04T10:20:30.366Z,6.17
2018-12-04T10:23:28.206Z,6.07
2018-12-04T10:26:27.809Z,7.17
2018-12-04T10:29:26.616Z,10.47
2018-12-04T10:32:24.223Z,7.37
2018-12-04T10:35:22.073Z,6.47
2018-12-04T10:38:19.954Z,6.67
2018-12-04T10:41:17.666Z,7.93
2018-12-04T10:44:15.352Z,6.17
2018-12-04T10:47:12.972Z,6.10
2018-12-04T10:50:10.849Z,7.10
2018-12-04T10:53:09.540Z,7.17
2018-12-04T10:56:08.350Z,7.27
2018-12-04T10:59:06.064Z,9.83
2018-12-04T11:02:10.056Z,6.10
2018-12-04T11:05:07.818Z,6.70
2018-12-04T11:08:05.668Z,6.70
2018-12-04T11:11:03.498Z,6.23
2018-12-04T11:14:01.333Z,9.47
2018-12-04T11:17:02.100Z,7.53
2018-12-04T11:19:59.857Z,8.23
2018-12-04T11:26:03.541Z,6.70
2018-12-04T11:29:02.241Z,7.80
2018-12-04T11:32:00.107Z,6.77
2018-12-04T11:34:58.930Z,8.93
2018-12-04T11:37:56.664Z,9.33
2018-12-04T11:40:55.399Z,8.63
2018-12-04T11:43:53.248Z,7.93
2018-12-04T11:46:51.002Z,8.27
2018-12-04T11:49:54.585Z,7.60
2018-12-04T11:52:53.250Z,11.00
2018-12-04T11:55:51.621Z,11.27
2018-12-04T11:58:52.993Z,10.47
2018-12-04T12:01:50.635Z,10.97
2018-12-04T12:04:48.533Z,11.83
2018-12-04T12:07:55.068Z,8.53
2018-12-04T12:11:00.041Z,9.83
2018-12-04T12:14:04.365Z,9.67
2018-12-04T12:17:02.021Z,8.57
2018-12-04T12:19:59.952Z,7.00
2018-12-04T12:22:57.797Z,8.00
2018-12-04T12:25:55.774Z,7.50
2018-12-04T12:28:53.628Z,5.00
2018-12-04T12:31:52.503Z,5.40
2018-12-04T12:34:51.317Z,5.80
2018-12-04T12:37:49.230Z,6.97
2018-12-04T12:40:47.092Z,6.17
2018-12-04T12:43:45.975Z,6.03
2018-12-04T12:46:43.918Z,6.75
2018-12-04T12:49:41.673Z,11.83
2018-12-04T12:52:39.849Z,7.33
2018-12-04T12:55:38.279Z,20.10
2018-12-04T12:58:37.012Z,12.20
2018-12-04T13:01:35.000Z,15.63
2018-12-04T13:04:32.972Z,7.60
2018-12-04T13:07:32.794Z,10.50
2018-12-04T13:10:31.471Z,8.83
2018-12-04T13:13:30.206Z,8.80
2018-12-04T13:16:28.377Z,6.57
2018-12-04T13:19:26.071Z,6.77
2018-12-04T13:22:24.051Z,6.17
2018-12-04T13:25:23.930Z,7.67
2018-12-04T13:28:21.876Z,9.23
2018-12-04T13:31:19.879Z,17.00
2018-12-04T13:34:17.860Z,17.97
2018-12-04T13:37:15.799Z,9.73
2018-12-04T13:40:14.558Z,16.07
2018-12-04T13:43:12.503Z,18.53
2018-12-04T13:46:10.606Z,21.83
2018-12-04T13:49:08.653Z,12.47
2018-12-04T13:52:06.487Z,13.30
2018-12-04T13:57:53.499Z,7.63
2018-12-04T14:00:52.212Z,8.00
2018-12-04T14:03:51.144Z,6.80
2018-12-04T14:06:48.896Z,8.90
2018-12-04T14:09:48.030Z,8.30
2018-12-04T14:12:46.449Z,6.87
2018-12-04T14:15:45.372Z,6.97
2018-12-04T14:18:44.122Z,5.67
2018-12-04T14:21:43.081Z,6.03
2018-12-04T14:24:40.920Z,7.67
2018-12-04T14:27:38.997Z,6.73
2018-12-04T14:30:36.785Z,8.20
2018-12-04T14:33:35.558Z,7.20
2018-12-04T14:36:33.651Z,5.43
2018-12-04T14:39:32.573Z,5.23
2018-12-04T14:42:30.494Z,7.47
2018-12-04T14:45:29.459Z,5.77
2018-12-04T14:48:27.469Z,6.47
2018-12-04T14:51:26.429Z,9.20
2018-12-04T14:54:25.312Z,5.67
2018-12-04T14:57:24.126Z,4.30
2018-12-04T15:00:23.116Z,4.57
2018-12-04T15:03:22.629Z,10.53
2018-12-04T15:06:21.042Z,31.23
2018-12-04T15:09:21.150Z,10.37
2018-12-04T15:12:19.981Z,11.50
2018-12-04T15:15:18.003Z,4.00
2018-12-04T15:18:16.161Z,4.27
2018-12-04T15:21:15.072Z,9.20
2018-12-04T15:24:14.073Z,6.83
2018-12-04T15:27:12.033Z,7.30
2018-12-04T15:30:10.766Z,7.83
2018-12-04T15:33:09.457Z,9.10
2018-12-04T15:36:08.360Z,11.67
2018-12-04T15:39:06.372Z,11.07
2018-12-04T15:42:04.102Z,14.23
2018-12-04T15:45:02.856Z,14.27
2018-12-04T15:48:00.842Z,14.23
2018-12-04T15:51:00.081Z,14.37
2018-12-04T15:53:58.355Z,11.03
2018-12-04T15:56:56.264Z,12.53
2018-12-04T15:59:55.258Z,19.27
2018-12-04T16:02:53.603Z,21.60
2018-12-04T16:05:51.457Z,19.43
2018-12-04T16:08:49.226Z,18.07
2018-12-04T16:11:46.977Z,15.37
2018-12-04T16:14:44.929Z,16.37
2018-12-04T16:17:42.682Z,14.13
2018-12-04T16:20:40.711Z,19.37
2018-12-04T16:23:39.628Z,17.73
2018-12-04T16:26:37.573Z,14.00
2018-12-04T16:29:35.442Z,15.27
2018-12-04T16:32:34.328Z,16.07
2018-12-04T16:35:32.265Z,15.47
2018-12-04T16:38:31.007Z,15.93
2018-12-04T16:41:28.894Z,20.03
2018-12-04T16:44:26.583Z,23.87
2018-12-04T16:47:25.331Z,25.07
2018-12-04T16:50:23.188Z,29.83
2018-12-04T16:53:21.149Z,23.73
2018-12-04T16:56:20.006Z,24.63
2018-12-04T16:59:17.953Z,23.43
2018-12-04T17:02:15.943Z,17.60
2018-12-04T17:05:13.912Z,15.30
2018-12-04T17:08:11.725Z,12.73
2018-12-04T17:11:09.607Z,12.40
2018-12-04T17:14:07.471Z,15.30
2018-12-04T17:17:05.356Z,15.10
2018-12-04T17:20:04.089Z,16.80
2018-12-04T17:23:02.123Z,17.80
2018-12-04T17:26:00.725Z,16.20
2018-12-04T17:28:58.731Z,13.40
2018-12-04T17:31:57.571Z,10.87
2018-12-04T17:34:55.662Z,11.20
2018-12-04T17:37:53.575Z,9.83
2018-12-04T17:40:51.658Z,13.07
2018-12-04T17:43:49.508Z,13.40
2018-12-04T17:46:47.290Z,13.63
2018-12-04T17:49:45.180Z,13.37
2018-12-04T17:52:43.078Z,13.97
2018-12-04T17:55:40.932Z,15.07
2018-12-04T17:58:38.997Z,16.97
2018-12-04T18:01:37.263Z,18.40
2018-12-04T18:04:35.235Z,20.20
2018-12-04T18:07:33.053Z,20.90
2018-12-04T18:10:30.917Z,21.90
2018-12-04T18:13:28.700Z,20.87
2018-12-04T18:16:26.411Z,42.23
2018-12-04T18:19:24.222Z,29.57
2018-12-04T18:22:22.218Z,32.60
2018-12-04T18:25:19.961Z,21.83
2018-12-04T18:28:18.849Z,35.50
2018-12-04T18:31:16.835Z,32.93
2018-12-04T18:34:14.645Z,19.03
2018-12-04T18:37:12.527Z,18.00
2018-12-04T18:40:10.320Z,15.33
2018-12-04T18:43:08.302Z,15.80
2018-12-04T18:46:06.216Z,16.70
2018-12-04T18:49:04.090Z,15.87
2018-12-04T18:52:01.931Z,18.60
2018-12-04T18:54:59.769Z,21.67
2018-12-04T18:57:57.525Z,24.03
2018-12-04T19:00:55.355Z,23.27
2018-12-04T19:03:53.159Z,22.43
2018-12-04T19:06:52.037Z,25.53
2018-12-04T19:09:49.912Z,25.70
2018-12-04T19:12:49.635Z,29.80
2018-12-04T19:15:47.950Z,27.53
2018-12-04T19:18:45.785Z,28.53
2018-12-04T19:21:44.485Z,30.87
2018-12-04T19:24:42.413Z,27.10
2018-12-04T19:27:41.045Z,24.67
2018-12-04T19:30:39.879Z,33.63
2018-12-04T19:33:37.641Z,21.77
2018-12-04T19:36:35.389Z,20.97
2018-12-04T19:39:33.492Z,19.77
2018-12-04T19:42:31.572Z,19.87
2018-12-04T19:45:30.165Z,23.70
2018-12-04T19:48:28.072Z,20.87
2018-12-04T19:51:26.771Z,26.40
2018-12-04T19:54:25.653Z,33.80
2018-12-04T19:57:24.358Z,32.47
2018-12-04T20:00:23.174Z,30.23
2018-12-04T20:03:21.363Z,32.10
2018-12-04T20:06:19.141Z,33.93
2018-12-04T20:09:17.123Z,25.13
2018-12-04T20:12:14.991Z,39.70
2018-12-04T20:15:12.989Z,38.73
2018-12-04T20:18:10.767Z,34.97
2018-12-04T20:21:08.744Z,35.30
2018-12-04T20:24:06.708Z,32.37
2018-12-04T20:27:04.669Z,30.30
2018-12-04T20:30:02.504Z,33.37
2018-12-04T20:33:00.582Z,36.03
2018-12-04T20:35:58.670Z,42.50
2018-12-04T20:38:56.796Z,44.60
2018-12-04T20:41:54.824Z,46.27
2018-12-04T20:44:54.002Z,47.47
2018-12-04T20:47:52.363Z,48.53
2018-12-04T20:50:52.463Z,52.30
2018-12-04T20:53:51.140Z,57.63
2018-12-04T20:56:49.933Z,65.03
2018-12-04T20:59:49.125Z,76.57
2018-12-04T21:02:47.801Z,66.93
2018-12-04T21:05:45.487Z,69.13
2018-12-04T21:08:43.906Z,69.10
2018-12-04T21:11:43.415Z,70.10
2018-12-04T21:14:41.851Z,67.03
2018-12-04T21:17:40.954Z,66.23
2018-12-04T21:20:39.941Z,58.07
2018-12-04T21:23:38.958Z,65.30
2018-12-04T21:26:37.291Z,66.10
2018-12-04T21:29:41.222Z,68.20
2018-12-04T21:32:45.198Z,60.13
2018-12-04T21:35:49.216Z,58.03
2018-12-04T21:38:53.102Z,46.90
2018-12-04T21:41:57.088Z,43.40
2018-12-04T21:48:44.978Z,44.17
2018-12-04T21:51:42.905Z,45.87
2018-12-04T21:54:40.933Z,39.57
2018-12-04T21:57:38.960Z,31.60
2018-12-04T22:00:36.883Z,28.80
2018-12-04T22:03:34.799Z,20.70
2018-12-04T22:06:32.594Z,16.77
2018-12-04T22:09:30.696Z,15.67
2018-12-04T22:12:28.660Z,15.50
2018-12-04T22:15:26.350Z,17.23
2018-12-04T22:18:25.081Z,19.90
2018-12-04T22:21:23.496Z,18.20
2018-12-04T22:24:22.364Z,21.57
2018-12-04T22:27:20.306Z,22.83
2018-12-04T22:30:19.681Z,22.97
2018-12-04T22:33:18.251Z,21.17
2018-12-04T22:36:16.247Z,21.47
2018-12-04T22:39:14.222Z,23.50
2018-12-04T22:42:12.047Z,21.10
2018-12-04T22:45:16.170Z,22.70
2018-12-04T22:48:15.137Z,24.60
2018-12-04T22:51:13.702Z,23.30
2018-12-04T22:54:11.480Z,23.80
2018-12-04T22:57:09.512Z,28.73
2018-12-04T23:00:07.336Z,28.23
2018-12-04T23:03:06.166Z,31.70
2018-12-04T23:06:04.238Z,33.13
2018-12-04T23:09:03.112Z,39.57
2018-12-04T23:12:01.090Z,38.60
2018-12-04T23:14:59.116Z,37.63
2018-12-04T23:17:56.880Z,43.63
2018-12-04T23:20:54.735Z,47.77
2018-12-04T23:23:52.699Z,44.03
2018-12-04T23:26:50.636Z,43.60
2018-12-04T23:29:48.734Z,39.67
2018-12-04T23:32:46.572Z,45.57
2018-12-04T23:35:44.519Z,40.73
2018-12-04T23:38:42.483Z,37.10
2018-12-04T23:41:42.686Z,32.20
2018-12-04T23:44:41.095Z,31.47
2018-12-04T23:47:38.927Z,28.93
2018-12-04T23:50:36.872Z,29.60
2018-12-04T23:53:34.805Z,28.87
2018-12-04T23:56:32.605Z,28.87
2018-12-04T23:59:30.430Z,27.63
